createdAt,value
2016-10-22T00:00:27.286Z,1004.06
2016-10-22T00:01:27.268Z,1004.04
2016-10-22T00:02:27.265Z,1004.04
2016-10-22T00:03:27.239Z,1004.07
2016-10-22T00:04:27.224Z,1004.07
2016-10-22T00:05:27.208Z,1004.05
2016-10-22T00:06:27.191Z,1004.11
2016-10-22T00:07:27.177Z,1004.09
2016-10-22T00:08:27.161Z,1004.08
2016-10-22T00:09:27.146Z,1004.06
2016-10-22T00:10:27.129Z,1004.06
2016-10-22T00:11:27.163Z,1004.08
2016-10-22T00:12:27.100Z,1004.07
2016-10-22T00:13:27.084Z,1004.07
2016-10-22T00:14:27.069Z,1004.07
2016-10-22T00:15:27.056Z,1004.03
2016-10-22T00:16:27.038Z,1004.04
2016-10-22T00:17:27.023Z,1004.06
2016-10-22T00:18:27.010Z,1004.05
2016-10-22T00:19:26.995Z,1004.01
2016-10-22T00:20:26.982Z,1004.03
2016-10-22T00:21:26.962Z,1004.03
2016-10-22T00:22:26.948Z,1004.06
2016-10-22T00:23:26.935Z,1004.03
2016-10-22T00:24:26.915Z,1004.05
2016-10-22T00:25:26.904Z,1004.05
2016-10-22T00:26:26.885Z,1004.05
2016-10-22T00:27:26.873Z,1004.04
2016-10-22T00:28:26.855Z,1004.04
2016-10-22T00:29:26.842Z,1004.06
2016-10-22T00:30:26.824Z,1004.07
2016-10-22T00:31:26.810Z,1004.03
2016-10-22T00:32:26.797Z,1004.06
2016-10-22T00:33:26.778Z,1004.03
2016-10-22T00:34:26.769Z,1004.02
2016-10-22T00:35:26.749Z,1003.99
2016-10-22T00:36:26.736Z,1004.02
2016-10-22T00:37:26.718Z,1004.04
2016-10-22T00:38:26.705Z,1004.02
2016-10-22T00:39:26.686Z,1003.99
2016-10-22T00:40:26.672Z,1004.03
2016-10-22T00:41:26.660Z,1003.96
2016-10-22T00:42:26.648Z,1003.99
2016-10-22T00:43:26.634Z,1003.98
2016-10-22T00:44:26.613Z,1004
2016-10-22T00:45:26.608Z,1003.97
2016-10-22T00:46:26.582Z,1003.98
2016-10-22T00:47:26.567Z,1003.93
2016-10-22T00:48:26.562Z,1003.94
2016-10-22T00:49:26.538Z,1003.95
2016-10-22T00:50:26.523Z,1003.93
2016-10-22T00:51:26.505Z,1003.91
2016-10-22T00:52:26.492Z,1003.9
2016-10-22T00:53:26.477Z,1003.9
2016-10-22T00:54:26.461Z,1003.94
2016-10-22T00:55:26.446Z,1003.91
2016-10-22T00:56:26.431Z,1003.92
2016-10-22T00:57:26.418Z,1003.88
2016-10-22T00:58:26.401Z,1003.92
2016-10-22T00:59:26.388Z,1003.92
2016-10-22T01:00:26.372Z,1003.92
2016-10-22T01:01:26.355Z,1003.91
2016-10-22T01:02:26.340Z,1003.9
2016-10-22T01:03:26.326Z,1003.94
2016-10-22T01:04:26.311Z,1003.89
2016-10-22T01:05:26.298Z,1003.86
2016-10-22T01:06:26.279Z,1003.88
2016-10-22T01:07:26.267Z,1003.9
2016-10-22T01:08:26.248Z,1003.89
2016-10-22T01:09:26.237Z,1003.91
2016-10-22T01:10:26.222Z,1003.91
2016-10-22T01:11:26.206Z,1003.92
2016-10-22T01:12:26.193Z,1003.88
2016-10-22T01:13:26.175Z,1003.88
2016-10-22T01:14:26.163Z,1003.92
2016-10-22T01:15:26.147Z,1003.88
2016-10-22T01:16:26.132Z,1003.87
2016-10-22T01:17:26.168Z,1003.87
2016-10-22T01:18:26.099Z,1003.86
2016-10-22T01:19:26.086Z,1003.82
2016-10-22T01:20:26.070Z,1003.87
2016-10-22T01:21:26.057Z,1003.86
2016-10-22T01:22:26.041Z,1003.87
2016-10-22T01:23:26.029Z,1003.86
2016-10-22T01:24:26.011Z,1003.84
2016-10-22T01:25:25.996Z,1003.88
2016-10-22T01:26:25.978Z,1003.87
2016-10-22T01:27:25.962Z,1003.87
2016-10-22T01:28:25.948Z,1003.83
2016-10-22T01:29:25.935Z,1003.87
2016-10-22T01:30:25.921Z,1003.85
2016-10-22T01:31:25.904Z,1003.86
2016-10-22T01:32:25.892Z,1003.84
2016-10-22T01:33:25.877Z,1003.85
2016-10-22T01:34:25.858Z,1003.88
2016-10-22T01:35:25.843Z,1003.8
2016-10-22T01:36:25.828Z,1003.84
2016-10-22T01:37:25.817Z,1003.82
2016-10-22T01:38:25.808Z,1003.81
2016-10-22T01:39:25.786Z,1003.82
2016-10-22T01:40:25.774Z,1003.82
2016-10-22T01:41:25.753Z,1003.8
2016-10-22T01:42:25.740Z,1003.79
2016-10-22T01:43:25.722Z,1003.8
2016-10-22T01:44:25.709Z,1003.77
2016-10-22T01:45:25.903Z,1003.79
2016-10-22T01:46:25.679Z,1003.78
2016-10-22T01:47:25.662Z,1003.77
2016-10-22T01:48:25.655Z,1003.79
2016-10-22T01:49:25.636Z,1003.79
2016-10-22T01:50:25.619Z,1003.77
2016-10-22T01:51:25.602Z,1003.76
2016-10-22T01:52:25.586Z,1003.75
2016-10-22T01:53:25.570Z,1003.8
2016-10-22T01:54:25.556Z,1003.75
2016-10-22T01:55:25.544Z,1003.75
2016-10-22T01:56:25.529Z,1003.8
2016-10-22T01:57:25.511Z,1003.77
2016-10-22T01:58:25.497Z,1003.77
2016-10-22T01:59:25.485Z,1003.77
2016-10-22T02:00:25.470Z,1003.79
2016-10-22T02:01:25.453Z,1003.78
2016-10-22T02:02:25.436Z,1003.8
2016-10-22T02:03:25.421Z,1003.8
2016-10-22T02:04:25.406Z,1003.81
2016-10-22T02:05:25.391Z,1003.79
2016-10-22T02:06:25.376Z,1003.81
2016-10-22T02:07:25.361Z,1003.82
2016-10-22T02:08:25.352Z,1003.81
2016-10-22T02:09:25.329Z,1003.79
2016-10-22T02:10:25.315Z,1003.76
2016-10-22T02:11:25.301Z,1003.78
2016-10-22T02:12:25.288Z,1003.73
2016-10-22T02:13:25.273Z,1003.74
2016-10-22T02:14:25.257Z,1003.74
2016-10-22T02:15:25.240Z,1003.8
2016-10-22T02:16:25.223Z,1003.82
2016-10-22T02:17:25.210Z,1003.76
2016-10-22T02:18:25.192Z,1003.78
2016-10-22T02:19:25.180Z,1003.74
2016-10-22T02:20:25.167Z,1003.79
2016-10-22T02:21:25.148Z,1003.77
2016-10-22T02:22:25.133Z,1003.74
2016-10-22T02:23:25.121Z,1003.75
2016-10-22T02:24:25.104Z,1003.74
2016-10-22T02:25:25.085Z,1003.74
2016-10-22T02:26:25.072Z,1003.75
2016-10-22T02:27:25.058Z,1003.74
2016-10-22T02:28:25.042Z,1003.74
2016-10-22T02:29:25.025Z,1003.73
2016-10-22T02:30:25.011Z,1003.72
2016-10-22T02:31:24.995Z,1003.68
2016-10-22T02:32:24.982Z,1003.73
2016-10-22T02:33:24.972Z,1003.72
2016-10-22T02:34:24.956Z,1003.71
2016-10-22T02:35:24.936Z,1003.73
2016-10-22T02:36:24.925Z,1003.7
2016-10-22T02:37:24.906Z,1003.69
2016-10-22T02:38:24.891Z,1003.69
2016-10-22T02:39:24.875Z,1003.69
2016-10-22T02:40:24.859Z,1003.7
2016-10-22T02:41:24.846Z,1003.7
2016-10-22T02:42:24.830Z,1003.71
2016-10-22T02:43:24.814Z,1003.69
2016-10-22T02:44:24.799Z,1003.73
2016-10-22T02:45:24.783Z,1003.71
2016-10-22T02:46:24.770Z,1003.7
2016-10-22T02:47:24.753Z,1003.69
2016-10-22T02:48:24.739Z,1003.7
2016-10-22T02:49:24.724Z,1003.7
2016-10-22T02:50:24.707Z,1003.69
2016-10-22T02:51:24.691Z,1003.67
2016-10-22T02:52:24.679Z,1003.71
2016-10-22T02:53:24.661Z,1003.69
2016-10-22T02:54:24.646Z,1003.7
2016-10-22T02:55:24.631Z,1003.68
2016-10-22T02:56:24.616Z,1003.67
2016-10-22T02:57:24.603Z,1003.71
2016-10-22T02:58:24.584Z,1003.71
2016-10-22T02:59:24.569Z,1003.69
2016-10-22T03:00:24.606Z,1003.71
2016-10-22T03:01:24.540Z,1003.69
2016-10-22T03:02:24.522Z,1003.7
2016-10-22T03:03:24.515Z,1003.72
2016-10-22T03:04:24.495Z,1003.7
2016-10-22T03:05:24.526Z,1003.72
2016-10-22T03:06:24.461Z,1003.7
2016-10-22T03:07:24.450Z,1003.7
2016-10-22T03:08:24.439Z,1003.71
2016-10-22T03:09:24.417Z,1003.68
2016-10-22T03:10:24.403Z,1003.7
2016-10-22T03:11:24.386Z,1003.72
2016-10-22T03:12:24.371Z,1003.69
2016-10-22T03:13:24.361Z,1003.7
2016-10-22T03:14:24.350Z,1003.68
2016-10-22T03:15:24.336Z,1003.74
2016-10-22T03:16:24.310Z,1003.72
2016-10-22T03:17:24.294Z,1003.75
2016-10-22T03:18:24.282Z,1003.74
2016-10-22T03:19:24.270Z,1003.72
2016-10-22T03:20:24.258Z,1003.73
2016-10-22T03:21:24.234Z,1003.72
2016-10-22T03:22:24.223Z,1003.74
2016-10-22T03:23:24.211Z,1003.75
2016-10-22T03:24:24.190Z,1003.74
2016-10-22T03:25:24.181Z,1003.77
2016-10-22T03:26:24.159Z,1003.83
2016-10-22T03:27:24.145Z,1003.78
2016-10-22T03:28:24.128Z,1003.8
2016-10-22T03:29:24.116Z,1003.83
2016-10-22T03:30:24.097Z,1003.87
2016-10-22T03:31:24.080Z,1003.85
2016-10-22T03:32:24.066Z,1003.84
2016-10-22T03:33:24.056Z,1003.9
2016-10-22T03:34:24.041Z,1003.88
2016-10-22T03:35:24.021Z,1003.88
2016-10-22T03:36:24.006Z,1003.89
2016-10-22T03:37:24.043Z,1003.91
2016-10-22T03:38:23.976Z,1003.9
2016-10-22T03:39:23.962Z,1003.9
2016-10-22T03:40:23.944Z,1003.88
2016-10-22T03:41:23.934Z,1003.93
2016-10-22T03:42:23.915Z,1003.92
2016-10-22T03:43:23.902Z,1003.92
2016-10-22T03:44:23.883Z,1003.94
2016-10-22T03:45:24.073Z,1003.94
2016-10-22T03:46:23.853Z,1003.97
2016-10-22T03:47:23.838Z,1003.98
2016-10-22T03:48:23.823Z,1003.98
2016-10-22T03:49:23.809Z,1003.98
2016-10-22T03:50:23.795Z,1003.96
2016-10-22T03:51:23.782Z,1004.01
2016-10-22T03:52:23.763Z,1003.97
2016-10-22T03:53:23.752Z,1003.97
2016-10-22T03:54:23.738Z,1003.94
2016-10-22T03:55:23.716Z,1003.94
2016-10-22T03:56:23.704Z,1003.94
2016-10-22T03:57:23.689Z,1003.94
2016-10-22T03:58:23.670Z,1003.92
2016-10-22T03:59:23.656Z,1003.93
2016-10-22T04:00:23.638Z,1003.94
2016-10-22T04:01:23.627Z,1003.94
2016-10-22T04:02:23.609Z,1003.97
2016-10-22T04:03:23.594Z,1003.94
2016-10-22T04:04:23.577Z,1003.97
2016-10-22T04:05:23.572Z,1003.92
2016-10-22T04:06:23.546Z,1003.94
2016-10-22T04:07:23.533Z,1003.94
2016-10-22T04:08:23.518Z,1003.95
2016-10-22T04:09:23.502Z,1003.92
2016-10-22T04:10:23.537Z,1003.93
2016-10-22T04:11:23.471Z,1003.95
2016-10-22T04:12:23.457Z,1003.91
2016-10-22T04:13:23.441Z,1003.93
2016-10-22T04:14:23.429Z,1003.97
2016-10-22T04:15:23.409Z,1003.91
2016-10-22T04:16:23.394Z,1003.94
2016-10-22T04:17:23.430Z,1003.97
2016-10-22T04:18:23.364Z,1003.96
2016-10-22T04:19:23.351Z,1003.95
2016-10-22T04:20:23.335Z,1003.96
2016-10-22T04:21:23.321Z,1004.01
2016-10-22T04:22:23.304Z,1003.96
2016-10-22T04:23:23.288Z,1003.97
2016-10-22T04:24:23.291Z,1004.03
2016-10-22T04:25:23.260Z,1003.99
2016-10-22T04:26:23.241Z,1003.98
2016-10-22T04:27:23.225Z,1003.98
2016-10-22T04:28:23.217Z,1004.03
2016-10-22T04:29:23.195Z,1003.99
2016-10-22T04:30:23.180Z,1004.01
2016-10-22T04:31:23.163Z,1004.03
2016-10-22T04:32:23.152Z,1004.03
2016-10-22T04:33:23.136Z,1004.01
2016-10-22T04:34:23.117Z,1004.04
2016-10-22T04:35:23.103Z,1004.06
2016-10-22T04:36:23.138Z,1004.03
2016-10-22T04:37:23.074Z,1004.03
2016-10-22T04:38:23.060Z,1004.04
2016-10-22T04:39:23.043Z,1004.06
2016-10-22T04:40:23.026Z,1004.06
2016-10-22T04:41:23.011Z,1004.09
2016-10-22T04:42:22.996Z,1004.14
2016-10-22T04:43:22.982Z,1004.07
2016-10-22T04:44:22.964Z,1004.13
2016-10-22T04:45:22.951Z,1004.11
2016-10-22T04:46:22.934Z,1004.12
2016-10-22T04:47:22.923Z,1004.13
2016-10-22T04:48:22.902Z,1004.2
2016-10-22T04:49:22.886Z,1004.16
2016-10-22T04:50:22.871Z,1004.18
2016-10-22T04:51:22.857Z,1004.15
2016-10-22T04:52:22.844Z,1004.15
2016-10-22T04:53:22.830Z,1004.2
2016-10-22T04:54:22.812Z,1004.16
2016-10-22T04:55:22.801Z,1004.14
2016-10-22T04:56:22.784Z,1004.15
2016-10-22T04:57:22.766Z,1004.18
2016-10-22T04:58:22.752Z,1004.17
2016-10-22T04:59:22.733Z,1004.14
2016-10-22T05:00:22.721Z,1004.17
2016-10-22T05:01:22.703Z,1004.12
2016-10-22T05:02:22.694Z,1004.16
2016-10-22T05:03:22.675Z,1004.14
2016-10-22T05:04:22.658Z,1004.16
2016-10-22T05:05:22.643Z,1004.15
2016-10-22T05:06:22.624Z,1004.16
2016-10-22T05:07:22.612Z,1004.15
2016-10-22T05:08:22.599Z,1004.17
2016-10-22T05:09:22.590Z,1004.16
2016-10-22T05:10:22.616Z,1004.18
2016-10-22T05:11:22.549Z,1004.18
2016-10-22T05:12:22.533Z,1004.19
2016-10-22T05:13:22.517Z,1004.19
2016-10-22T05:14:22.502Z,1004.18
2016-10-22T05:15:22.486Z,1004.2
2016-10-22T05:16:22.472Z,1004.19
2016-10-22T05:17:22.455Z,1004.17
2016-10-22T05:18:22.439Z,1004.2
2016-10-22T05:19:22.425Z,1004.23
2016-10-22T05:20:22.416Z,1004.24
2016-10-22T05:21:22.393Z,1004.22
2016-10-22T05:22:22.380Z,1004.23
2016-10-22T05:23:22.365Z,1004.25
2016-10-22T05:24:22.347Z,1004.24
2016-10-22T05:25:22.331Z,1004.24
2016-10-22T05:26:22.319Z,1004.27
2016-10-22T05:27:22.302Z,1004.28
2016-10-22T05:28:22.286Z,1004.25
2016-10-22T05:29:22.270Z,1004.29
2016-10-22T05:30:22.255Z,1004.28
2016-10-22T05:31:22.240Z,1004.25
2016-10-22T05:32:22.223Z,1004.27
2016-10-22T05:33:22.211Z,1004.28
2016-10-22T05:34:22.193Z,1004.36
2016-10-22T05:35:22.178Z,1004.3
2016-10-22T05:36:22.161Z,1004.3
2016-10-22T05:37:22.145Z,1004.31
2016-10-22T05:38:22.133Z,1004.29
2016-10-22T05:39:22.113Z,1004.3
2016-10-22T05:40:22.101Z,1004.32
2016-10-22T05:41:22.089Z,1004.32
2016-10-22T05:42:22.068Z,1004.36
2016-10-22T05:43:22.053Z,1004.38
2016-10-22T05:44:22.037Z,1004.35
2016-10-22T05:45:22.022Z,1004.35
2016-10-22T05:46:22.007Z,1004.35
2016-10-22T05:47:21.991Z,1004.38
2016-10-22T05:48:21.978Z,1004.37
2016-10-22T05:49:21.961Z,1004.42
2016-10-22T05:50:21.946Z,1004.39
2016-10-22T05:51:21.926Z,1004.43
2016-10-22T05:52:21.914Z,1004.43
2016-10-22T05:53:21.899Z,1004.42
2016-10-22T05:54:21.884Z,1004.4
2016-10-22T05:55:21.864Z,1004.4
2016-10-22T05:56:21.851Z,1004.42
2016-10-22T05:57:21.883Z,1004.41
2016-10-22T05:58:21.818Z,1004.42
2016-10-22T05:59:21.802Z,1004.47
2016-10-22T06:00:21.787Z,1004.44
2016-10-22T06:01:21.773Z,1004.45
2016-10-22T06:02:21.755Z,1004.41
2016-10-22T06:03:21.739Z,1004.49
2016-10-22T06:04:21.738Z,1004.51
2016-10-22T06:05:21.714Z,1004.52
2016-10-22T06:06:21.694Z,1004.54
2016-10-22T06:07:21.682Z,1004.53
2016-10-22T06:08:21.663Z,1004.55
2016-10-22T06:09:21.696Z,1004.54
2016-10-22T06:10:21.634Z,1004.58
2016-10-22T06:11:21.619Z,1004.55
2016-10-22T06:12:21.598Z,1004.55
2016-10-22T06:13:21.584Z,1004.54
2016-10-22T06:14:21.569Z,1004.6
2016-10-22T06:15:21.552Z,1004.61
2016-10-22T06:16:21.536Z,1004.62
2016-10-22T06:17:21.520Z,1004.6
2016-10-22T06:18:21.507Z,1004.6
2016-10-22T06:19:21.541Z,1004.64
2016-10-22T06:20:21.475Z,1004.62
2016-10-22T06:21:21.459Z,1004.64
2016-10-22T06:22:21.494Z,1004.6
2016-10-22T06:23:21.428Z,1004.59
2016-10-22T06:24:21.412Z,1004.61
2016-10-22T06:25:21.397Z,1004.63
2016-10-22T06:26:21.382Z,1004.63
2016-10-22T06:27:21.365Z,1004.62
2016-10-22T06:28:21.352Z,1004.61
2016-10-22T06:29:21.342Z,1004.63
2016-10-22T06:30:21.319Z,1004.61
2016-10-22T06:31:21.301Z,1004.61
2016-10-22T06:32:21.290Z,1004.62
2016-10-22T06:33:21.272Z,1004.62
2016-10-22T06:34:21.256Z,1004.63
2016-10-22T06:35:21.242Z,1004.63
2016-10-22T06:36:21.230Z,1004.61
2016-10-22T06:37:21.217Z,1004.62
2016-10-22T06:38:21.194Z,1004.64
2016-10-22T06:39:21.178Z,1004.64
2016-10-22T06:40:21.164Z,1004.64
2016-10-22T06:41:21.149Z,1004.67
2016-10-22T06:42:21.131Z,1004.65
2016-10-22T06:43:21.118Z,1004.64
2016-10-22T06:44:21.101Z,1004.7
2016-10-22T06:45:21.083Z,1004.72
2016-10-22T06:46:21.071Z,1004.71
2016-10-22T06:47:21.055Z,1004.69
2016-10-22T06:48:21.036Z,1004.69
2016-10-22T06:49:21.022Z,1004.74
2016-10-22T06:50:21.006Z,1004.76
2016-10-22T06:51:20.989Z,1004.74
2016-10-22T06:52:20.976Z,1004.71
2016-10-22T06:53:20.959Z,1004.76
2016-10-22T06:54:20.942Z,1004.75
2016-10-22T06:55:20.927Z,1004.77
2016-10-22T06:56:20.911Z,1004.79
2016-10-22T06:57:20.897Z,1004.8
2016-10-22T06:58:20.879Z,1004.83
2016-10-22T06:59:20.887Z,1004.82
2016-10-22T07:00:20.862Z,1004.85
2016-10-22T07:01:20.840Z,1004.87
2016-10-22T07:02:20.823Z,1004.87
2016-10-22T07:03:20.800Z,1004.86
2016-10-22T07:04:20.799Z,1004.88
2016-10-22T07:05:20.788Z,1004.85
2016-10-22T07:06:20.755Z,1004.84
2016-10-22T07:07:20.739Z,1004.83
2016-10-22T07:08:20.723Z,1004.89
2016-10-22T07:09:20.707Z,1004.84
2016-10-22T07:10:20.693Z,1004.85
2016-10-22T07:11:20.680Z,1004.88
2016-10-22T07:12:20.660Z,1004.88
2016-10-22T07:13:20.645Z,1004.91
2016-10-22T07:14:20.629Z,1004.89
2016-10-22T07:15:20.611Z,1004.87
2016-10-22T07:16:20.598Z,1004.86
2016-10-22T07:17:20.581Z,1004.86
2016-10-22T07:18:20.566Z,1004.89
2016-10-22T07:19:20.550Z,1004.9
2016-10-22T07:20:20.536Z,1004.91
2016-10-22T07:21:20.518Z,1004.94
2016-10-22T07:22:20.504Z,1004.95
2016-10-22T07:23:20.494Z,1004.94
2016-10-22T07:24:20.475Z,1004.97
2016-10-22T07:25:20.462Z,1004.96
2016-10-22T07:26:20.443Z,1004.98
2016-10-22T07:27:20.428Z,1005.01
2016-10-22T07:28:20.411Z,1005.03
2016-10-22T07:29:20.396Z,1004.99
2016-10-22T07:30:20.383Z,1005.01
2016-10-22T07:31:20.364Z,1005.01
2016-10-22T07:32:20.346Z,1005.04
2016-10-22T07:33:20.331Z,1005.03
2016-10-22T07:34:20.316Z,1005.04
2016-10-22T07:35:20.301Z,1005.03
2016-10-22T07:36:20.283Z,1005.03
2016-10-22T07:37:20.268Z,1005.03
2016-10-22T07:38:20.253Z,1005.03
2016-10-22T07:39:20.237Z,1005.03
2016-10-22T07:40:20.222Z,1005.07
2016-10-22T07:41:20.206Z,1005.09
2016-10-22T07:42:20.191Z,1005.09
2016-10-22T07:43:20.176Z,1005.11
2016-10-22T07:44:20.169Z,1005.1
2016-10-22T07:45:20.147Z,1005.1
2016-10-22T07:46:20.331Z,1005.08
2016-10-22T07:47:20.114Z,1005.1
2016-10-22T07:48:20.099Z,1005.15
2016-10-22T07:49:20.082Z,1005.15
2016-10-22T07:50:20.067Z,1005.18
2016-10-22T07:51:20.053Z,1005.15
2016-10-22T07:52:20.038Z,1005.17
2016-10-22T07:53:20.021Z,1005.2
2016-10-22T07:54:20.008Z,1005.18
2016-10-22T07:55:19.993Z,1005.23
2016-10-22T07:56:19.975Z,1005.22
2016-10-22T07:57:19.958Z,1005.21
2016-10-22T07:58:19.944Z,1005.25
2016-10-22T07:59:19.928Z,1005.25
2016-10-22T08:00:19.916Z,1005.25
2016-10-22T08:01:19.899Z,1005.23
2016-10-22T08:02:19.883Z,1005.24
2016-10-22T08:03:19.877Z,1005.22
2016-10-22T08:04:19.854Z,1005.23
2016-10-22T08:05:19.837Z,1005.25
2016-10-22T08:06:19.823Z,1005.22
2016-10-22T08:07:19.807Z,1005.23
2016-10-22T08:08:19.793Z,1005.22
2016-10-22T08:09:19.778Z,1005.23
2016-10-22T08:10:19.966Z,1005.23
2016-10-22T08:11:19.745Z,1005.23
2016-10-22T08:12:19.730Z,1005.23
2016-10-22T08:13:19.721Z,1005.24
2016-10-22T08:14:19.700Z,1005.23
2016-10-22T08:15:19.689Z,1005.24
2016-10-22T08:16:19.677Z,1005.25
2016-10-22T08:17:19.656Z,1005.24
2016-10-22T08:18:19.657Z,1005.24
2016-10-22T08:19:19.628Z,1005.27
2016-10-22T08:20:19.613Z,1005.25
2016-10-22T08:21:19.607Z,1005.23
2016-10-22T08:22:19.587Z,1005.22
2016-10-22T08:23:19.571Z,1005.23
2016-10-22T08:24:19.552Z,1005.23
2016-10-22T08:25:19.543Z,1005.23
2016-10-22T08:26:19.537Z,1005.24
2016-10-22T08:27:19.505Z,1005.25
2016-10-22T08:28:19.490Z,1005.21
2016-10-22T08:29:19.474Z,1005.25
2016-10-22T08:30:19.460Z,1005.22
2016-10-22T08:31:19.449Z,1005.26
2016-10-22T08:32:19.430Z,1005.26
2016-10-22T08:33:19.422Z,1005.26
2016-10-22T08:34:19.399Z,1005.21
2016-10-22T08:35:19.391Z,1005.25
2016-10-22T08:36:19.377Z,1005.22
2016-10-22T08:37:19.357Z,1005.26
2016-10-22T08:38:19.339Z,1005.27
2016-10-22T08:39:19.338Z,1005.23
2016-10-22T08:40:19.310Z,1005.27
2016-10-22T08:41:19.296Z,1005.25
2016-10-22T08:42:19.280Z,1005.27
2016-10-22T08:43:19.270Z,1005.27
2016-10-22T08:44:19.252Z,1005.24
2016-10-22T08:45:19.237Z,1005.25
2016-10-22T08:46:19.222Z,1005.26
2016-10-22T08:47:19.225Z,1005.28
2016-10-22T08:48:19.196Z,1005.27
2016-10-22T08:49:19.176Z,1005.3
2016-10-22T08:50:19.173Z,1005.27
2016-10-22T08:51:19.146Z,1005.29
2016-10-22T08:52:19.132Z,1005.32
2016-10-22T08:53:19.132Z,1005.3
2016-10-22T08:54:19.103Z,1005.29
2016-10-22T08:55:19.088Z,1005.32
2016-10-22T08:56:19.079Z,1005.35
2016-10-22T08:57:19.065Z,1005.31
2016-10-22T08:58:19.043Z,1005.32
2016-10-22T08:59:19.030Z,1005.35
2016-10-22T09:00:19.023Z,1005.33
2016-10-22T09:01:19.022Z,1005.35
2016-10-22T09:02:18.986Z,1005.35
2016-10-22T09:03:18.976Z,1005.35
2016-10-22T09:04:18.954Z,1005.39
2016-10-22T09:05:18.950Z,1005.4
2016-10-22T09:06:18.952Z,1005.34
2016-10-22T09:07:18.917Z,1005.41
2016-10-22T09:08:18.897Z,1005.41
2016-10-22T09:09:18.884Z,1005.45
2016-10-22T09:10:18.869Z,1005.5
2016-10-22T09:11:18.857Z,1005.49
2016-10-22T09:12:18.842Z,1005.47
2016-10-22T09:13:18.831Z,1005.53
2016-10-22T09:14:18.813Z,1005.49
2016-10-22T09:15:18.798Z,1005.5
2016-10-22T09:16:18.797Z,1005.49
2016-10-22T09:17:18.773Z,1005.47
2016-10-22T09:18:18.756Z,1005.5
2016-10-22T09:19:18.742Z,1005.5
2016-10-22T09:20:18.728Z,1005.54
2016-10-22T09:21:18.713Z,1005.53
2016-10-22T09:22:18.698Z,1005.54
2016-10-22T09:23:18.685Z,1005.54
2016-10-22T09:24:18.670Z,1005.55
2016-10-22T09:25:18.669Z,1005.54
2016-10-22T09:26:18.648Z,1005.55
2016-10-22T09:27:18.633Z,1005.59
2016-10-22T09:28:18.622Z,1005.59
2016-10-22T09:29:18.604Z,1005.61
2016-10-22T09:30:18.587Z,1005.65
2016-10-22T09:31:18.572Z,1005.63
2016-10-22T09:32:18.560Z,1005.63
2016-10-22T09:33:18.544Z,1005.65
2016-10-22T09:34:18.532Z,1005.63
2016-10-22T09:35:18.522Z,1005.63
2016-10-22T09:36:18.504Z,1005.66
2016-10-22T09:37:18.494Z,1005.64
2016-10-22T09:38:18.478Z,1005.61
2016-10-22T09:39:18.464Z,1005.67
2016-10-22T09:40:18.456Z,1005.69
2016-10-22T09:41:18.435Z,1005.7
2016-10-22T09:42:18.423Z,1005.69
2016-10-22T09:43:18.411Z,1005.66
2016-10-22T09:44:18.393Z,1005.68
2016-10-22T09:45:18.381Z,1005.69
2016-10-22T09:46:18.571Z,1005.63
2016-10-22T09:47:18.352Z,1005.66
2016-10-22T09:48:18.341Z,1005.67
2016-10-22T09:49:18.324Z,1005.71
2016-10-22T09:50:18.322Z,1005.73
2016-10-22T09:51:18.296Z,1005.72
2016-10-22T09:52:18.285Z,1005.72
2016-10-22T09:53:18.269Z,1005.7
2016-10-22T09:54:18.262Z,1005.72
2016-10-22T09:55:18.242Z,1005.72
2016-10-22T09:56:18.228Z,1005.7
2016-10-22T09:57:18.215Z,1005.71
2016-10-22T09:58:18.205Z,1005.66
2016-10-22T09:59:18.191Z,1005.73
2016-10-22T10:00:18.173Z,1005.67
2016-10-22T10:01:18.163Z,1005.67
2016-10-22T10:02:18.150Z,1005.68
2016-10-22T10:03:18.135Z,1005.68
2016-10-22T10:04:18.124Z,1005.68
2016-10-22T10:05:18.125Z,1005.72
2016-10-22T10:06:18.094Z,1005.68
2016-10-22T10:07:18.081Z,1005.71
2016-10-22T10:08:18.061Z,1005.66
2016-10-22T10:09:18.050Z,1005.7
2016-10-22T10:10:18.034Z,1005.67
2016-10-22T10:11:18.019Z,1005.74
2016-10-22T10:12:18.016Z,1005.65
2016-10-22T10:13:17.992Z,1005.71
2016-10-22T10:14:17.977Z,1005.7
2016-10-22T10:15:17.967Z,1005.7
2016-10-22T10:16:17.949Z,1005.74
2016-10-22T10:17:17.936Z,1005.7
2016-10-22T10:18:17.927Z,1005.75
2016-10-22T10:19:17.909Z,1005.75
2016-10-22T10:20:17.903Z,1005.79
2016-10-22T10:21:17.882Z,1005.72
2016-10-22T10:22:17.866Z,1005.73
2016-10-22T10:23:17.854Z,1005.75
2016-10-22T10:24:17.838Z,1005.76
2016-10-22T10:25:17.828Z,1005.73
2016-10-22T10:26:17.812Z,1005.78
2016-10-22T10:27:17.797Z,1005.8
2016-10-22T10:28:17.785Z,1005.78
2016-10-22T10:29:17.772Z,1005.8
2016-10-22T10:30:17.762Z,1005.78
2016-10-22T10:31:17.743Z,1005.8
2016-10-22T10:32:17.730Z,1005.83
2016-10-22T10:33:17.723Z,1005.85
2016-10-22T10:34:17.704Z,1005.84
2016-10-22T10:35:17.690Z,1005.84
2016-10-22T10:36:17.728Z,1005.85
2016-10-22T10:37:17.670Z,1005.84
2016-10-22T10:38:17.648Z,1005.84
2016-10-22T10:39:17.636Z,1005.82
2016-10-22T10:40:17.620Z,1005.85
2016-10-22T10:41:17.608Z,1005.83
2016-10-22T10:42:17.595Z,1005.83
2016-10-22T10:43:17.583Z,1005.82
2016-10-22T10:44:17.570Z,1005.82
2016-10-22T10:45:17.556Z,1005.86
2016-10-22T10:46:17.539Z,1005.84
2016-10-22T10:47:17.526Z,1005.83
2016-10-22T10:48:17.514Z,1005.87
2016-10-22T10:49:17.502Z,1005.86
2016-10-22T10:50:17.494Z,1005.85
2016-10-22T10:51:17.477Z,1005.85
2016-10-22T10:52:17.461Z,1005.87
2016-10-22T10:53:17.446Z,1005.9
2016-10-22T10:54:17.431Z,1005.87
2016-10-22T10:55:17.418Z,1005.87
2016-10-22T10:56:17.411Z,1005.83
2016-10-22T10:57:17.391Z,1005.84
2016-10-22T10:58:17.382Z,1005.87
2016-10-22T10:59:17.364Z,1005.84
2016-10-22T11:00:17.351Z,1005.84
2016-10-22T11:01:17.338Z,1005.84
2016-10-22T11:02:17.324Z,1005.86
2016-10-22T11:03:17.317Z,1005.81
2016-10-22T11:04:17.298Z,1005.84
2016-10-22T11:05:17.284Z,1005.84
2016-10-22T11:06:17.273Z,1005.82
2016-10-22T11:07:17.258Z,1005.84
2016-10-22T11:08:17.244Z,1005.84
2016-10-22T11:09:17.233Z,1005.84
2016-10-22T11:10:17.216Z,1005.82
2016-10-22T11:11:17.201Z,1005.84
2016-10-22T11:12:17.189Z,1005.84
2016-10-22T11:13:17.178Z,1005.8
2016-10-22T11:14:17.162Z,1005.81
2016-10-22T11:15:17.149Z,1005.81
2016-10-22T11:16:17.137Z,1005.78
2016-10-22T11:17:17.123Z,1005.77
2016-10-22T11:18:17.114Z,1005.78
2016-10-22T11:19:17.095Z,1005.79
2016-10-22T11:20:17.083Z,1005.8
2016-10-22T11:21:17.118Z,1005.82
2016-10-22T11:22:17.055Z,1005.85
2016-10-22T11:23:17.056Z,1005.86
2016-10-22T11:24:17.031Z,1005.81
2016-10-22T11:25:17.019Z,1005.86
2016-10-22T11:26:17.004Z,1005.85
2016-10-22T11:27:16.993Z,1005.87
2016-10-22T11:28:16.984Z,1005.85
2016-10-22T11:29:16.967Z,1005.85
2016-10-22T11:30:16.951Z,1005.83
2016-10-22T11:31:16.939Z,1005.88
2016-10-22T11:32:16.924Z,1005.89
2016-10-22T11:33:16.912Z,1005.86
2016-10-22T11:34:16.898Z,1005.87
2016-10-22T11:35:16.885Z,1005.88
2016-10-22T11:36:16.870Z,1005.86
2016-10-22T11:37:16.862Z,1005.87
2016-10-22T11:38:16.842Z,1005.85
2016-10-22T11:39:16.831Z,1005.87
2016-10-22T11:40:16.825Z,1005.86
2016-10-22T11:41:16.802Z,1005.86
2016-10-22T11:42:16.794Z,1005.88
2016-10-22T11:43:16.821Z,1005.87
2016-10-22T11:44:16.763Z,1005.84
2016-10-22T11:45:16.748Z,1005.87
2016-10-22T11:46:16.939Z,1005.85
2016-10-22T11:47:16.722Z,1005.89
2016-10-22T11:48:16.713Z,1005.9
2016-10-22T11:49:16.694Z,1005.86
2016-10-22T11:50:16.681Z,1005.85
2016-10-22T11:51:16.668Z,1005.87
2016-10-22T11:52:16.654Z,1005.85
2016-10-22T11:53:16.640Z,1005.86
2016-10-22T11:54:16.626Z,1005.87
2016-10-22T11:55:16.611Z,1005.86
2016-10-22T11:56:16.598Z,1005.87
2016-10-22T11:57:16.583Z,1005.88
2016-10-22T11:58:16.572Z,1005.84
2016-10-22T11:59:16.557Z,1005.89
2016-10-22T12:00:16.543Z,1005.86
2016-10-22T12:01:16.528Z,1005.87
2016-10-22T12:02:16.517Z,1005.85
2016-10-22T12:03:16.502Z,1005.85
2016-10-22T12:04:16.489Z,1005.85
2016-10-22T12:05:16.477Z,1005.87
2016-10-22T12:06:16.871Z,1005.87
2016-10-22T12:07:16.449Z,1005.86
2016-10-22T12:08:16.436Z,1005.87